createdAt,value
2023-02-25T00:02:31.575Z,4.70
2023-02-25T00:06:34.486Z,4.70
2023-02-25T00:10:38.627Z,4.70
2023-02-25T00:14:41.610Z,4.70
2023-02-25T00:18:46.678Z,4.70
2023-02-25T00:22:49.809Z,4.70
2023-02-25T00:26:53.963Z,4.70
2023-02-25T00:30:56.801Z,4.70
2023-02-25T00:34:59.645Z,4.70
2023-02-25T00:39:02.547Z,4.60
2023-02-25T00:43:06.736Z,4.60
2023-02-25T00:47:09.523Z,4.60
2023-02-25T00:51:13.442Z,4.50
2023-02-25T00:55:16.414Z,4.50
2023-02-25T00:59:20.583Z,4.50
2023-02-25T01:03:23.747Z,4.50
2023-02-25T01:07:26.680Z,4.50
2023-02-25T01:11:30.846Z,4.50
2023-02-25T01:15:34.988Z,4.50
2023-02-25T01:19:43.768Z,4.50
2023-02-25T01:23:46.758Z,4.50
2023-02-25T01:27:49.580Z,4.50
2023-02-25T01:31:54.896Z,4.50
2023-02-25T01:35:57.832Z,4.50
2023-02-25T01:40:00.597Z,4.50
2023-02-25T01:44:07.632Z,4.50
2023-02-25T01:48:14.546Z,4.50
2023-02-25T01:52:19.801Z,4.50
2023-02-25T01:56:24.515Z,4.50
2023-02-25T02:00:28.738Z,4.50
2023-02-25T02:04:32.976Z,4.50
2023-02-25T02:08:36.514Z,4.40
2023-02-25T02:12:41.145Z,4.40
2023-02-25T02:17:09.662Z,4.40
2023-02-25T02:21:22.532Z,4.50
2023-02-25T02:25:43.764Z,4.40
2023-02-25T02:30:19.557Z,4.40
2023-02-25T02:34:29.467Z,4.50
2023-02-25T02:38:35.118Z,4.50
2023-02-25T02:42:40.948Z,4.50
2023-02-25T02:46:46.894Z,4.50
2023-02-25T02:50:52.980Z,4.50
2023-02-25T02:54:58.116Z,4.50
2023-02-25T02:59:05.861Z,4.50
2023-02-25T03:03:11.547Z,4.50
2023-02-25T03:07:16.121Z,4.50
2023-02-25T03:11:18.935Z,4.50
2023-02-25T03:15:22.070Z,4.50
2023-02-25T03:19:27.818Z,4.50
2023-02-25T03:23:33.579Z,4.50
2023-02-25T03:27:38.628Z,4.50
2023-02-25T03:31:43.481Z,4.50
2023-02-25T03:35:47.641Z,4.50
2023-02-25T03:39:55.663Z,4.50
2023-02-25T03:43:59.918Z,4.50
2023-02-25T03:48:03.386Z,4.40
2023-02-25T03:52:11.896Z,4.40
2023-02-25T03:56:16.056Z,4.40
2023-02-25T04:00:22.869Z,4.40
2023-02-25T04:04:26.065Z,4.40
2023-02-25T04:08:28.977Z,4.40
2023-02-25T04:12:33.138Z,4.40
2023-02-25T04:16:35.949Z,4.30
2023-02-25T04:20:40.907Z,4.40
2023-02-25T04:24:43.741Z,4.30
2023-02-25T04:28:47.893Z,4.30
2023-02-25T04:32:50.744Z,4.30
2023-02-25T04:36:56.654Z,4.30
2023-02-25T04:40:59.450Z,4.30
2023-02-25T04:45:03.585Z,4.40
2023-02-25T04:49:06.867Z,4.40
2023-02-25T04:53:09.675Z,4.40
2023-02-25T04:57:12.821Z,4.40
2023-02-25T05:01:17.080Z,4.30
2023-02-25T05:05:19.952Z,4.30
2023-02-25T05:09:23.529Z,4.30
2023-02-25T05:13:26.333Z,4.20
2023-02-25T05:17:30.605Z,4.10
2023-02-25T05:21:33.883Z,4.10
2023-02-25T05:25:36.826Z,4.00
2023-02-25T05:29:39.639Z,4.00
2023-02-25T05:33:43.817Z,4.00
2023-02-25T05:37:46.604Z,4.00
2023-02-25T05:41:52.441Z,4.00
2023-02-25T05:45:55.407Z,3.90
2023-02-25T05:49:59.567Z,3.90
2023-02-25T05:54:02.409Z,3.90
2023-02-25T05:58:05.182Z,3.90
2023-02-25T06:02:08.076Z,3.90
2023-02-25T06:06:13.328Z,3.80
2023-02-25T06:10:16.146Z,3.80
2023-02-25T06:14:18.946Z,3.80
2023-02-25T06:18:21.712Z,3.80
2023-02-25T06:22:25.839Z,3.80
2023-02-25T06:26:29.144Z,3.70
2023-02-25T06:30:32.128Z,3.70
2023-02-25T06:34:34.978Z,3.60
2023-02-25T06:38:39.112Z,3.60
2023-02-25T06:42:42.071Z,3.60
2023-02-25T06:46:44.991Z,3.60
2023-02-25T06:50:47.796Z,3.60
2023-02-25T06:54:53.011Z,3.60
2023-02-25T06:58:56.789Z,3.60
2023-02-25T07:02:59.570Z,3.60
2023-02-25T07:07:02.349Z,3.60
2023-02-25T07:11:27.083Z,3.60
2023-02-25T07:15:29.926Z,3.50
2023-02-25T07:19:32.774Z,3.60
2023-02-25T07:23:35.551Z,3.60
2023-02-25T07:27:41.937Z,3.70
2023-02-25T07:31:46.370Z,3.70
2023-02-25T07:35:49.247Z,3.80
2023-02-25T07:39:52.196Z,3.80
2023-02-25T07:43:56.388Z,3.80
2023-02-25T07:47:59.481Z,3.90
2023-02-25T07:52:02.316Z,3.90
2023-02-25T07:56:06.228Z,3.90
2023-02-25T08:00:11.288Z,4.00
2023-02-25T08:04:14.363Z,4.10
2023-02-25T08:08:17.300Z,4.10
2023-02-25T08:12:20.289Z,4.10
2023-02-25T08:16:24.427Z,4.10
2023-02-25T08:20:27.241Z,4.10
2023-02-25T08:24:30.095Z,4.10
2023-02-25T08:28:37.143Z,4.10
2023-02-25T08:32:43.024Z,4.30
2023-02-25T08:36:46.440Z,4.60
2023-02-25T08:40:49.703Z,4.80
2023-02-25T08:44:56.234Z,4.90
2023-02-25T08:49:00.575Z,4.80
2023-02-25T08:53:03.474Z,4.70
2023-02-25T08:57:06.312Z,4.60
2023-02-25T09:01:12.994Z,4.50
2023-02-25T09:05:20.292Z,4.30
2023-02-25T09:09:23.498Z,4.20
2023-02-25T09:13:26.358Z,4.10
2023-02-25T09:17:29.429Z,4.00
2023-02-25T09:21:33.609Z,4.00
2023-02-25T09:25:36.401Z,4.00
2023-02-25T09:29:41.665Z,4.00
2023-02-25T09:33:44.639Z,4.00
2023-02-25T09:37:48.793Z,4.10
2023-02-25T09:41:55.319Z,4.40
2023-02-25T09:46:04.270Z,5.00
2023-02-25T09:50:09.082Z,5.80
2023-02-25T09:54:19.699Z,6.60
2023-02-25T09:58:25.636Z,7.20
2023-02-25T10:02:31.592Z,7.70
2023-02-25T10:06:36.835Z,8.20
2023-02-25T10:10:44.249Z,8.40
2023-02-25T10:14:57.963Z,8.30
2023-02-25T10:19:05.523Z,8.20
2023-02-25T10:23:12.022Z,8.10
2023-02-25T10:27:20.427Z,8.00
2023-02-25T10:31:24.396Z,8.10
2023-02-25T10:35:28.878Z,8.40
2023-02-25T10:39:34.102Z,8.70
2023-02-25T10:43:38.821Z,8.70
2023-02-25T10:47:42.381Z,8.50
2023-02-25T10:52:03.116Z,8.10
2023-02-25T10:56:06.374Z,7.70
2023-02-25T11:00:23.300Z,7.20
2023-02-25T11:04:30.737Z,6.90
2023-02-25T11:08:34.460Z,6.60
2023-02-25T11:12:41.216Z,6.40
2023-02-25T11:16:46.518Z,6.30
2023-02-25T11:20:50.570Z,6.20
2023-02-25T11:24:59.522Z,6.00
2023-02-25T11:29:03.706Z,5.80
2023-02-25T11:33:11.567Z,5.60
2023-02-25T11:37:25.905Z,5.40
2023-02-25T11:41:32.127Z,5.30
2023-02-25T11:45:35.856Z,5.30
2023-02-25T11:49:53.487Z,5.20
2023-02-25T11:54:04.516Z,5.20
2023-02-25T11:58:11.073Z,5.40
2023-02-25T12:02:31.864Z,5.70
2023-02-25T12:06:43.573Z,6.10
2023-02-25T12:11:07.181Z,6.40
2023-02-25T12:15:37.056Z,6.60
2023-02-25T12:19:57.702Z,6.50
2023-02-25T12:24:15.366Z,6.30
2023-02-25T12:28:30.776Z,6.10
2023-02-25T12:32:53.768Z,6.10
2023-02-25T12:37:17.308Z,6.10
2023-02-25T12:41:25.802Z,6.50
2023-02-25T12:45:35.057Z,7.20
2023-02-25T12:49:45.007Z,7.50
2023-02-25T12:53:54.643Z,7.50
2023-02-25T12:58:05.334Z,7.40
2023-02-25T13:02:23.187Z,7.20
2023-02-25T13:06:36.424Z,6.90
2023-02-25T13:10:47.429Z,6.70
2023-02-25T13:15:02.941Z,6.60
2023-02-25T13:19:16.394Z,6.60
2023-02-25T13:23:26.321Z,6.50
2023-02-25T13:27:36.522Z,6.40
2023-02-25T13:31:45.485Z,6.30
2023-02-25T13:35:54.758Z,6.10
2023-02-25T13:40:17.048Z,5.90
2023-02-25T13:44:22.755Z,5.80
2023-02-25T13:48:43.666Z,5.70
2023-02-25T13:52:55.375Z,5.60
2023-02-25T13:57:05.438Z,5.70
2023-02-25T14:01:20.740Z,5.70
2023-02-25T14:05:30.825Z,5.80
2023-02-25T14:09:36.621Z,5.80
2023-02-25T14:13:47.828Z,5.80
2023-02-25T14:17:59.581Z,5.90
2023-02-25T14:22:20.122Z,5.90
2023-02-25T14:26:27.703Z,5.90
2023-02-25T14:30:39.728Z,5.90
2023-02-25T14:34:56.132Z,5.80
2023-02-25T14:39:05.579Z,5.80
2023-02-25T14:43:16.954Z,5.70
2023-02-25T14:47:23.738Z,5.70
2023-02-25T14:51:35.179Z,5.70
2023-02-25T14:55:56.285Z,5.70
2023-02-25T15:00:10.128Z,5.80
2023-02-25T15:04:42.952Z,5.80
2023-02-25T15:09:00.640Z,5.80
2023-02-25T15:13:21.420Z,5.80
2023-02-25T15:17:42.767Z,6.00
2023-02-25T15:21:49.770Z,6.40
2023-02-25T15:25:55.497Z,6.50
2023-02-25T15:29:59.065Z,6.40
2023-02-25T15:34:20.356Z,6.30
2023-02-25T15:38:39.471Z,6.10
2023-02-25T15:42:47.965Z,5.90
2023-02-25T15:46:51.105Z,5.90
2023-02-25T15:50:54.289Z,5.90
2023-02-25T15:55:15.721Z,5.70
2023-02-25T15:59:36.154Z,5.60
2023-02-25T16:03:44.975Z,5.50
2023-02-25T16:07:49.357Z,5.70
2023-02-25T16:11:54.497Z,5.80
2023-02-25T16:15:58.856Z,5.90
2023-02-25T16:20:15.088Z,6.00
2023-02-25T16:24:19.260Z,6.00
2023-02-25T16:28:28.080Z,5.90
2023-02-25T16:32:36.218Z,5.70
2023-02-25T16:36:44.268Z,5.60
2023-02-25T16:40:47.132Z,5.40
2023-02-25T16:44:56.908Z,5.30
2023-02-25T16:49:01.880Z,5.10
2023-02-25T16:53:04.989Z,5.00
2023-02-25T16:57:09.471Z,4.80
2023-02-25T17:01:22.476Z,4.70
2023-02-25T17:05:27.206Z,4.50
2023-02-25T17:09:31.049Z,4.40
2023-02-25T17:13:35.153Z,4.30
2023-02-25T17:17:40.921Z,4.10
2023-02-25T17:21:46.676Z,4.00
2023-02-25T17:25:50.054Z,3.90
2023-02-25T17:29:52.898Z,3.80
2023-02-25T17:33:57.915Z,3.80
2023-02-25T17:38:01.527Z,3.70
2023-02-25T17:42:04.381Z,3.60
2023-02-25T17:46:16.199Z,3.50
2023-02-25T17:50:27.020Z,3.40
2023-02-25T17:54:31.823Z,3.30
2023-02-25T17:58:35.550Z,3.20
2023-02-25T18:02:39.120Z,3.10
2023-02-25T18:06:44.687Z,3.00
2023-02-25T18:10:52.158Z,2.90
2023-02-25T18:14:56.388Z,2.80
2023-02-25T18:18:59.888Z,2.70
2023-02-25T18:23:05.059Z,2.60
2023-02-25T18:27:26.073Z,2.50
2023-02-25T18:31:28.937Z,2.40
2023-02-25T18:35:32.986Z,2.30
2023-02-25T18:39:38.097Z,2.20
2023-02-25T18:43:42.889Z,2.10
2023-02-25T18:47:45.986Z,2.10
2023-02-25T18:51:50.088Z,2.10
2023-02-25T18:55:55.134Z,2.00
2023-02-25T18:59:59.241Z,2.00
2023-02-25T19:04:02.457Z,1.90
2023-02-25T19:08:06.916Z,1.90
2023-02-25T19:12:13.362Z,1.90
2023-02-25T19:16:16.832Z,1.90
2023-02-25T19:20:21.114Z,1.90
2023-02-25T19:24:24.048Z,1.90
2023-02-25T19:28:28.205Z,1.90
2023-02-25T19:32:31.026Z,2.00
2023-02-25T19:36:33.916Z,2.00
2023-02-25T19:40:37.717Z,2.00
2023-02-25T19:44:41.866Z,2.00
2023-02-25T19:48:44.822Z,2.00
2023-02-25T19:52:47.845Z,2.00
2023-02-25T19:56:50.867Z,2.00
2023-02-25T20:00:55.065Z,2.00
2023-02-25T20:04:57.873Z,1.90
2023-02-25T20:09:01.594Z,1.90
2023-02-25T20:13:04.398Z,1.90
2023-02-25T20:17:08.527Z,1.90
2023-02-25T20:21:11.347Z,1.90
2023-02-25T20:25:15.173Z,1.90
2023-02-25T20:29:18.281Z,1.90
2023-02-25T20:33:24.106Z,1.90
2023-02-25T20:37:31.290Z,1.90
2023-02-25T20:41:34.223Z,1.90
2023-02-25T20:45:37.393Z,1.90
2023-02-25T20:49:41.748Z,1.90
2023-02-25T20:53:44.851Z,1.90
2023-02-25T20:57:47.748Z,1.80
2023-02-25T21:01:50.557Z,1.80
2023-02-25T21:05:54.827Z,1.80
2023-02-25T21:09:57.838Z,1.80
2023-02-25T21:14:00.740Z,1.70
2023-02-25T21:18:03.709Z,1.70
2023-02-25T21:22:08.005Z,1.60
2023-02-25T21:26:11.669Z,1.60
2023-02-25T21:30:14.925Z,1.50
2023-02-25T21:34:18.015Z,1.50
2023-02-25T21:38:22.673Z,1.40
2023-02-25T21:42:25.511Z,1.40
2023-02-25T21:46:28.632Z,1.30
2023-02-25T21:50:31.571Z,1.30
2023-02-25T21:54:35.841Z,1.20
2023-02-25T21:58:38.870Z,1.20
2023-02-25T22:02:41.742Z,1.20
2023-02-25T22:06:45.249Z,1.20
2023-02-25T22:10:49.608Z,1.10
2023-02-25T22:14:52.413Z,1.10
2023-02-25T22:18:55.416Z,1.10
2023-02-25T22:23:00.129Z,1.00
2023-02-25T22:27:04.373Z,1.00
2023-02-25T22:31:10.096Z,1.00
2023-02-25T22:35:13.122Z,0.90
2023-02-25T22:39:16.123Z,0.90
2023-02-25T22:47:23.387Z,0.80
2023-02-25T22:51:28.056Z,0.80
2023-02-25T22:55:34.866Z,0.70
2023-02-25T22:59:37.653Z,0.70
2023-02-25T23:03:43.707Z,0.60
2023-02-25T23:07:46.529Z,0.60
2023-02-25T23:11:54.604Z,0.50
2023-02-25T23:16:01.991Z,0.50
2023-02-25T23:20:08.853Z,0.40
2023-02-25T23:24:16.129Z,0.40
2023-02-25T23:28:19.883Z,0.40
2023-02-25T23:32:22.805Z,0.40
2023-02-25T23:36:27.609Z,0.30
2023-02-25T23:40:30.558Z,0.30
2023-02-25T23:44:33.389Z,0.30
2023-02-25T23:48:36.187Z,0.30
2023-02-25T23:52:41.365Z,0.20
2023-02-25T23:56:44.248Z,0.20
